createdAt,value
2023-04-27T00:00:00.298Z,5.8
2023-04-27T00:05:00.437Z,5.4
2023-04-27T00:10:00.339Z,5.5
2023-04-27T00:15:00.258Z,5.6
2023-04-27T00:20:00.300Z,5.6
2023-04-27T00:25:00.254Z,5.6
2023-04-27T00:30:00.311Z,5.3
2023-04-27T00:35:00.255Z,5.6
2023-04-27T00:40:00.284Z,5.4
2023-04-27T00:45:00.260Z,5.6
2023-04-27T00:50:00.287Z,5.7
2023-04-27T00:55:00.246Z,5.4
2023-04-27T01:00:01.669Z,5.5
2023-04-27T01:05:00.246Z,5.2
2023-04-27T01:10:00.281Z,5.1
2023-04-27T01:15:00.298Z,5.2
2023-04-27T01:20:00.382Z,5.2
2023-04-27T01:25:00.255Z,4.9
2023-04-27T01:30:00.306Z,4.8
2023-04-27T01:35:00.286Z,5.0
2023-04-27T01:40:00.300Z,5.0
2023-04-27T01:45:00.265Z,4.7
2023-04-27T01:50:00.300Z,4.8
2023-04-27T01:55:00.264Z,4.8
2023-04-27T02:00:00.295Z,4.6
2023-04-27T02:05:00.295Z,4.7
2023-04-27T02:10:00.469Z,4.8
2023-04-27T02:15:00.258Z,4.8
2023-04-27T02:20:00.301Z,4.8
2023-04-27T02:25:00.284Z,5.1
2023-04-27T02:30:00.304Z,5.0
2023-04-27T02:35:00.260Z,5.2
2023-04-27T02:40:00.299Z,5.2
2023-04-27T02:45:00.257Z,5.3
2023-04-27T02:50:00.298Z,5.5
2023-04-27T02:55:00.296Z,5.4
2023-04-27T03:00:01.018Z,5.4
2023-04-27T03:05:00.262Z,5.2
2023-04-27T03:10:00.318Z,4.9
2023-04-27T03:15:00.567Z,5.0
2023-04-27T03:20:00.302Z,5.2
2023-04-27T03:25:00.242Z,5.2
2023-04-27T03:30:00.356Z,5.3
2023-04-27T03:35:00.251Z,5.2
2023-04-27T03:40:00.448Z,5.2
2023-04-27T03:45:00.282Z,5.0
2023-04-27T03:50:00.288Z,4.5
2023-04-27T03:55:00.250Z,4.8
2023-04-27T04:00:00.291Z,4.8
2023-04-27T04:05:00.302Z,4.5
2023-04-27T04:10:00.278Z,4.6
2023-04-27T04:15:00.255Z,4.3
2023-04-27T04:20:00.699Z,4.5
2023-04-27T04:25:00.239Z,4.4
2023-04-27T04:30:00.293Z,4.3
2023-04-27T04:35:00.270Z,4.4
2023-04-27T04:40:00.348Z,4.3
2023-04-27T04:45:00.244Z,4.4
2023-04-27T04:50:00.330Z,4.3
2023-04-27T04:55:00.279Z,4.4
2023-04-27T05:00:00.297Z,4.5
2023-04-27T05:05:00.290Z,4.4
2023-04-27T05:10:00.280Z,4.6
2023-04-27T05:15:00.244Z,4.4
2023-04-27T05:20:00.305Z,4.4
2023-04-27T05:25:02.312Z,4.7
2023-04-27T05:30:00.314Z,4.8
2023-04-27T05:35:00.277Z,4.9
2023-04-27T05:40:00.286Z,5.0
2023-04-27T05:45:00.235Z,5.0
2023-04-27T05:50:00.298Z,4.9
2023-04-27T05:55:00.289Z,4.9
2023-04-27T06:00:00.298Z,5.0
2023-04-27T06:05:00.329Z,4.9
2023-04-27T06:10:00.294Z,5.0
2023-04-27T06:15:00.346Z,5.3
2023-04-27T06:20:00.322Z,5.3
2023-04-27T06:25:00.246Z,5.3
2023-04-27T06:30:00.282Z,5.2
2023-04-27T06:35:00.240Z,5.4
2023-04-27T06:40:00.318Z,5.4
2023-04-27T06:45:00.285Z,5.8
2023-04-27T06:50:00.316Z,6.1
2023-04-27T06:55:00.253Z,6.1
2023-04-27T07:00:00.317Z,5.9
2023-04-27T07:05:00.599Z,6.4
2023-04-27T07:10:00.277Z,6.6
2023-04-27T07:15:00.234Z,6.7
2023-04-27T07:20:00.280Z,7.8
2023-04-27T07:25:02.289Z,8.4
2023-04-27T07:30:00.292Z,8.9
2023-04-27T07:35:00.256Z,7.8
2023-04-27T07:40:00.596Z,8.0
2023-04-27T07:45:00.244Z,8.4
2023-04-27T07:50:00.290Z,7.7
2023-04-27T07:55:00.295Z,8.3
2023-04-27T08:00:00.286Z,7.8
2023-04-27T08:05:00.491Z,8.6
2023-04-27T08:10:00.292Z,8.8
2023-04-27T08:15:00.291Z,8.6
2023-04-27T08:20:00.284Z,8.7
2023-04-27T08:25:00.256Z,8.6
2023-04-27T08:30:00.304Z,9.0
2023-04-27T08:35:00.250Z,8.7
2023-04-27T08:40:00.334Z,9.2
2023-04-27T08:45:00.298Z,10.1
2023-04-27T08:50:00.284Z,9.8
2023-04-27T08:55:00.239Z,10.5
2023-04-27T09:00:00.368Z,9.9
2023-04-27T09:05:00.619Z,10.1
2023-04-27T09:10:00.278Z,10.3
2023-04-27T09:15:00.250Z,10.7
2023-04-27T09:20:00.294Z,10.2
2023-04-27T09:25:00.270Z,9.5
2023-04-27T09:30:00.288Z,9.4
2023-04-27T09:35:00.286Z,10.7
2023-04-27T09:40:00.307Z,11.6
2023-04-27T09:45:00.239Z,10.5
2023-04-27T09:50:00.297Z,12.3
2023-04-27T09:55:00.289Z,12.4
2023-04-27T10:00:00.285Z,10.5
2023-04-27T10:05:00.304Z,10.4
2023-04-27T10:10:00.298Z,10.4
2023-04-27T10:15:00.282Z,10.9
2023-04-27T10:20:00.284Z,11.0
2023-04-27T10:25:00.260Z,10.9
2023-04-27T10:30:00.306Z,10.9
2023-04-27T10:35:00.305Z,11.4
2023-04-27T10:40:00.293Z,11.4
2023-04-27T10:45:00.249Z,11.5
2023-04-27T10:50:00.290Z,11.2
2023-04-27T10:55:00.300Z,10.4
2023-04-27T11:00:00.255Z,11.0
2023-04-27T11:05:00.390Z,10.8
2023-04-27T11:10:00.305Z,11.8
2023-04-27T11:15:00.285Z,11.4
2023-04-27T11:20:00.298Z,11.2
2023-04-27T11:25:00.305Z,10.5
2023-04-27T11:30:00.268Z,11.3
2023-04-27T11:35:00.301Z,11.2
2023-04-27T11:40:00.254Z,11.9
2023-04-27T11:45:00.299Z,11.8
2023-04-27T11:50:00.279Z,11.7
2023-04-27T11:55:00.358Z,11.5
2023-04-27T12:00:00.365Z,11.4
2023-04-27T12:05:00.426Z,11.4
2023-04-27T12:10:01.213Z,11.4
2023-04-27T12:15:00.298Z,11.8
2023-04-27T12:20:00.276Z,11.8
2023-04-27T12:25:00.305Z,11.4
2023-04-27T12:30:00.323Z,10.9
2023-04-27T12:35:00.300Z,11.5
2023-04-27T12:40:00.346Z,11.2
2023-04-27T12:45:00.304Z,11.3
2023-04-27T12:50:00.239Z,11.9
2023-04-27T12:55:00.331Z,12.0
2023-04-27T13:00:01.700Z,11.4
2023-04-27T13:05:00.345Z,11.3
2023-04-27T13:10:00.228Z,11.1
2023-04-27T13:15:00.291Z,11.3
2023-04-27T13:20:00.300Z,10.9
2023-04-27T13:25:00.307Z,10.6
2023-04-27T13:30:00.246Z,10.7
2023-04-27T13:35:00.268Z,11.3
2023-04-27T13:40:00.292Z,11.2
2023-04-27T13:45:00.309Z,11.2
2023-04-27T13:50:00.259Z,11.3
2023-04-27T13:55:00.282Z,11.6
2023-04-27T14:00:00.310Z,11.8
2023-04-27T14:05:00.369Z,11.5
2023-04-27T14:10:00.240Z,11.5
2023-04-27T14:15:00.303Z,11.7
2023-04-27T14:20:00.245Z,11.7
2023-04-27T14:25:00.295Z,11.7
2023-04-27T14:30:00.278Z,11.7
2023-04-27T14:35:00.336Z,11.5
2023-04-27T14:40:00.235Z,11.3
2023-04-27T14:45:00.309Z,11.3
2023-04-27T14:50:00.259Z,11.1
2023-04-27T14:55:00.295Z,10.8
2023-04-27T15:00:00.292Z,11.3
2023-04-27T15:05:00.487Z,11.0
2023-04-27T15:10:00.269Z,11.2
2023-04-27T15:15:00.283Z,11.4
2023-04-27T15:20:00.285Z,10.7
2023-04-27T15:25:00.350Z,11.1
2023-04-27T15:30:00.240Z,11.7
2023-04-27T15:35:00.350Z,11.5
2023-04-27T15:40:00.266Z,11.6
2023-04-27T15:45:00.302Z,11.4
2023-04-27T15:50:00.240Z,11.5
2023-04-27T15:55:00.296Z,11.9
2023-04-27T16:00:00.268Z,11.8
2023-04-27T16:05:00.328Z,11.8
2023-04-27T16:10:00.382Z,11.7
2023-04-27T16:15:00.323Z,11.8
2023-04-27T16:20:00.369Z,11.9
2023-04-27T16:25:00.284Z,12.0
2023-04-27T16:30:00.329Z,11.9
2023-04-27T16:35:00.291Z,11.8
2023-04-27T16:40:00.356Z,11.9
2023-04-27T16:45:00.448Z,11.8
2023-04-27T16:50:00.279Z,11.9
2023-04-27T16:55:00.293Z,11.8
2023-04-27T17:00:00.445Z,11.6
2023-04-27T17:05:00.343Z,11.4
2023-04-27T17:10:00.409Z,11.6
2023-04-27T17:15:00.287Z,11.5
2023-04-27T17:20:00.374Z,11.5
2023-04-27T17:25:00.360Z,11.6
2023-04-27T17:30:00.253Z,11.4
2023-04-27T17:35:00.290Z,11.6
2023-04-27T17:40:00.304Z,11.3
2023-04-27T17:45:00.279Z,11.4
2023-04-27T17:50:00.309Z,11.3
2023-04-27T17:55:00.261Z,10.9
2023-04-27T18:00:00.323Z,11.1
2023-04-27T18:05:00.241Z,11.2
2023-04-27T18:10:00.318Z,10.9
2023-04-27T18:15:02.966Z,10.9
2023-04-27T18:20:08.175Z,10.9
2023-04-27T18:25:00.240Z,10.7
2023-04-27T18:30:00.287Z,10.6
2023-04-27T18:35:00.244Z,10.6
2023-04-27T18:40:00.272Z,10.6
2023-04-27T18:45:00.965Z,10.5
2023-04-27T18:50:00.276Z,10.5
2023-04-27T18:55:00.239Z,10.2
2023-04-27T19:00:00.376Z,10.3
2023-04-27T19:05:11.269Z,10.2
2023-04-27T19:10:00.330Z,10.3
2023-04-27T19:15:00.250Z,10.1
2023-04-27T19:20:00.280Z,10.2
2023-04-27T19:25:00.258Z,10.1
2023-04-27T19:30:00.290Z,10.1
2023-04-27T19:35:00.327Z,9.9
2023-04-27T19:40:00.332Z,9.8
2023-04-27T19:45:00.266Z,9.8
2023-04-27T19:50:00.290Z,9.9
2023-04-27T19:55:00.327Z,9.8
2023-04-27T20:00:00.307Z,9.8
2023-04-27T20:05:00.541Z,9.7
2023-04-27T20:10:00.282Z,9.7
2023-04-27T20:15:00.304Z,9.6
2023-04-27T20:20:00.289Z,9.6
2023-04-27T20:25:00.293Z,9.5
2023-04-27T20:30:00.283Z,9.5
2023-04-27T20:35:02.047Z,9.5
2023-04-27T20:40:00.292Z,9.5
2023-04-27T20:45:00.260Z,9.5
2023-04-27T20:50:00.281Z,9.4
2023-04-27T20:55:00.287Z,9.5
2023-04-27T21:00:00.339Z,9.5
2023-04-27T21:05:00.281Z,9.6
2023-04-27T21:10:00.318Z,9.4
2023-04-27T21:15:00.251Z,9.4
2023-04-27T21:20:00.316Z,9.5
2023-04-27T21:25:00.286Z,9.6
2023-04-27T21:30:00.284Z,9.7
2023-04-27T21:35:00.249Z,9.6
2023-04-27T21:40:00.289Z,9.6
2023-04-27T21:45:00.247Z,9.3
2023-04-27T21:50:00.294Z,9.3
2023-04-27T21:55:00.284Z,9.3
2023-04-27T22:00:00.305Z,9.5
2023-04-27T22:05:00.437Z,9.3
2023-04-27T22:10:00.303Z,9.6
2023-04-27T22:15:00.282Z,10.1
2023-04-27T22:20:00.264Z,10.2
2023-04-27T22:25:00.239Z,9.9
2023-04-27T22:30:00.307Z,9.6
2023-04-27T22:35:00.248Z,9.4
2023-04-27T22:40:00.300Z,9.1
2023-04-27T22:45:00.270Z,9.2
2023-04-27T22:50:00.310Z,9.3
2023-04-27T22:55:00.240Z,9.0
2023-04-27T23:00:00.295Z,9.1
2023-04-27T23:05:00.325Z,9.0
2023-04-27T23:10:00.280Z,8.9
2023-04-27T23:15:00.249Z,8.8
2023-04-27T23:20:00.283Z,8.8
2023-04-27T23:25:00.258Z,8.7
2023-04-27T23:30:00.309Z,8.8
2023-04-27T23:35:00.288Z,8.9
2023-04-27T23:40:00.305Z,8.5
2023-04-27T23:45:00.245Z,8.6
2023-04-27T23:50:00.273Z,8.6
2023-04-27T23:55:00.299Z,8.3
